Terminal Aerodrome Forecast
Issued by NWS Billings, MT

Home | Current Version | Previous Version | Graphics & Text | Print | Product List | Glossary On
Versions: 1 2 3 4 5 6 7 8 9 10 11 12
000
FTUS45 KBYZ 201133
TAFMLS
TAF
KMLS 201133Z 2012/2112 14007KT P6SM SKC
     FM201600 15015G22KT P6SM SKC
     FM210300 15011KT P6SM FEW200 WS015/16035KT
     FM210900 14008KT P6SM SCT200=

USA.gov is the U.S. government's official web portal to all federal, state and local government web resources and services.